地図

経路データ

SID SEASON NUMBER BASIN SUBBASIN NAME ISO_TIME NATURE LAT LON WMO_WIND WMO_PRES WMO_AGENCY TRACK_TYPE DIST2LAND LANDFALL IFLAG USA_AGENCY USA_ATCF_ID USA_LAT USA_LON USA_RECORD USA_STATUS USA_WIND USA_PRES USA_SSHS USA_R34_NE USA_R34_SE USA_R34_SW USA_R34_NW USA_R50_NE USA_R50_SE USA_R50_SW USA_R50_NW USA_R64_NE USA_R64_SE USA_R64_SW USA_R64_NW USA_POCI USA_ROCI USA_RMW USA_EYE TOKYO_LAT TOKYO_LON TOKYO_GRADE TOKYO_WIND TOKYO_PRES TOKYO_R50_DIR TOKYO_R50_LONG TOKYO_R50_SHORT TOKYO_R30_DIR TOKYO_R30_LONG TOKYO_R30_SHORT TOKYO_LAND CMA_LAT CMA_LON CMA_CAT CMA_WIND CMA_PRES HKO_LAT HKO_LON HKO_CAT HKO_WIND HKO_PRES NEWDELHI_LAT NEWDELHI_LON NEWDELHI_GRADE NEWDELHI_WIND NEWDELHI_PRES NEWDELHI_CI NEWDELHI_DP NEWDELHI_POCI REUNION_LAT REUNION_LON REUNION_TYPE REUNION_WIND REUNION_PRES REUNION_TNUM REUNION_CI REUNION_RMW REUNION_R34_NE REUNION_R34_SE REUNION_R34_SW REUNION_R34_NW REUNION_R50_NE REUNION_R50_SE REUNION_R50_SW REUNION_R50_NW REUNION_R64_NE REUNION_R64_SE REUNION_R64_SW REUNION_R64_NW BOM_LAT BOM_LON BOM_TYPE BOM_WIND BOM_PRES BOM_TNUM BOM_CI BOM_RMW BOM_R34_NE BOM_R34_SE BOM_R34_SW BOM_R34_NW BOM_R50_NE BOM_R50_SE BOM_R50_SW BOM_R50_NW BOM_R64_NE BOM_R64_SE BOM_R64_SW BOM_R64_NW BOM_ROCI BOM_POCI BOM_EYE BOM_POS_METHOD BOM_PRES_METHOD NADI_LAT NADI_LON NADI_CAT NADI_WIND NADI_PRES WELLINGTON_LAT WELLINGTON_LON WELLINGTON_WIND WELLINGTON_PRES DS824_LAT DS824_LON DS824_STAGE DS824_WIND DS824_PRES TD9636_LAT TD9636_LON TD9636_STAGE TD9636_WIND TD9636_PRES TD9635_LAT TD9635_LON TD9635_WIND TD9635_PRES TD9635_ROCI NEUMANN_LAT NEUMANN_LON NEUMANN_CLASS NEUMANN_WIND NEUMANN_PRES MLC_LAT MLC_LON MLC_CLASS MLC_WIND MLC_PRES USA_GUST BOM_GUST BOM_GUST_PER REUNION_GUST REUNION_GUST_PER USA_SEAHGT USA_SEARAD_NE USA_SEARAD_SE USA_SEARAD_SW USA_SEARAD_NW STORM_SPEED STORM_DIR
1909172N19115 1909 29 WP MM NOT_NAMED 1909-06-20 16:00:00 NR 19.2000 115.200 main 359 356 __________O___ -1 19.2000 115.200 2 4 279
1909172N19115 1909 29 WP MM NOT_NAMED 1909-06-20 18:00:00 NR 19.2222 115.050 main 356 339 __________P___ -1 19.2222 115.050 2 4 279
1909172N19115 1909 29 WP MM NOT_NAMED 1909-06-20 21:00:00 NR 19.2534 114.825 main 339 335 __________P___ -1 19.2534 114.825 2 4 278
1909172N19115 1909 29 WP MM NOT_NAMED 1909-06-21 00:00:00 NR 19.2792 114.600 main 335 325 __________P___ -1 19.2792 114.600 2 4 276
1909172N19115 1909 29 WP MM NOT_NAMED 1909-06-21 03:00:00 NR 19.2966 114.375 main 325 320 __________P___ -1 19.2966 114.375 2 4 274
1909172N19115 1909 29 WP MM NOT_NAMED 1909-06-21 04:00:00 NR 19.3000 114.300 main 320 312 __________O___ -1 19.3000 114.300 2 4 272
1909172N19115 1909 29 WP MM NOT_NAMED 1909-06-21 06:00:00 NR 19.3030 114.150 main 312 305 __________P___ -1 19.3030 114.150 2 4 270
1909172N19115 1909 29 WP MM NOT_NAMED 1909-06-21 09:00:00 NR 19.3012 113.925 main 305 285 __________P___ -1 19.3012 113.925 2 4 269
1909172N19115 1909 29 WP MM NOT_NAMED 1909-06-21 12:00:00 NR 19.2974 113.700 main 285 264 __________P___ -1 19.2974 113.700 2 4 270
1909172N19115 1909 29 WP MM NOT_NAMED 1909-06-21 15:00:00 NR 19.2978 113.475 main 264 253 __________P___ -1 19.2978 113.475 2 4 271
1909172N19115 1909 29 WP MM NOT_NAMED 1909-06-21 16:00:00 NR 19.3000 113.400 main 253 243 __________O___ -1 19.3000 113.400 2 4 274
1909172N19115 1909 29 WP MM NOT_NAMED 1909-06-21 18:00:00 NR 19.3109 113.250 main 243 212 __________P___ -1 19.3109 113.250 2 4 275
1909172N19115 1909 29 WP MM NOT_NAMED 1909-06-21 21:00:00 NR 19.3336 113.025 main 212 189 __________P___ -1 19.3336 113.025 2 4 277
1909172N19115 1909 29 WP MM NOT_NAMED 1909-06-22 00:00:00 NR 19.3611 112.800 main 189 169 __________P___ -1 19.3611 112.800 2 4 278
1909172N19115 1909 29 WP MM NOT_NAMED 1909-06-22 03:00:00 NR 19.3904 112.575 main 169 158 __________P___ -1 19.3904 112.575 2 4 278
1909172N19115 1909 29 WP MM NOT_NAMED 1909-06-22 04:00:00 NR 19.4000 112.500 main 158 138 __________O___ -1 19.4000 112.500 2 4 277
1909172N19115 1909 29 WP MM NOT_NAMED 1909-06-22 06:00:00 NR 19.4166 112.350 main 138 117 __________P___ -1 19.4166 112.350 2 4 277
1909172N19115 1909 29 WP MM NOT_NAMED 1909-06-22 09:00:00 NR 19.4416 112.125 main 117 94 __________P___ -1 19.4416 112.125 2 4 277
1909172N19115 1909 29 WP MM NOT_NAMED 1909-06-22 12:00:00 NR 19.4666 111.900 main 94 74 __________P___ -1 19.4666 111.900 2 4 277
1909172N19115 1909 29 WP MM NOT_NAMED 1909-06-22 15:00:00 NR 19.4916 111.675 main 74 63 __________P___ -1 19.4916 111.675 2 4 277
1909172N19115 1909 29 WP MM NOT_NAMED 1909-06-22 16:00:00 NR 19.5000 111.600 main 63 53 __________O___ -1 19.5000 111.600 3 4 276
1909172N19115 1909 29 WP MM NOT_NAMED 1909-06-22 18:00:00 NR 19.5113 111.460 main 53 33 __________P___ -1 19.5113 111.460 3 4 275
1909172N19115 1909 29 WP MM NOT_NAMED 1909-06-22 21:00:00 NR 19.5281 111.251 main 33 0 __________P___ -1 19.5281 111.251 3 4 276
1909172N19115 1909 29 WP MM NOT_NAMED 1909-06-23 00:00:00 NR 19.5505 111.031 main 0 0 __________P___ -1 19.5505 111.031 3 4 277
1909172N19115 1909 29 WP MM NOT_NAMED 1909-06-23 03:00:00 NR 19.5848 110.788 main 0 0 __________P___ -1 19.5848 110.788 3 5 279
1909172N19115 1909 29 WP MM NOT_NAMED 1909-06-23 04:00:00 NR 19.6000 110.700 main 0 0 __________O___ -1 19.6000 110.700 4 5 281
1909172N19115 1909 29 WP MM NOT_NAMED 1909-06-23 06:00:00 NR 19.6333 110.514 main 0 0 __________P___ -1 19.6333 110.514 4 6 282
1909172N19115 1909 29 WP MM NOT_NAMED 1909-06-23 09:00:00 NR 19.6957 110.210 main 0 0 __________P___ -1 19.6957 110.210 4 6 283
1909172N19115 1909 29 WP MM NOT_NAMED 1909-06-23 12:00:00 NR 19.7731 109.879 main 0 0 __________P___ -1 19.7731 109.879 4 7 285
1909172N19115 1909 29 WP MM NOT_NAMED 1909-06-23 15:00:00 NR 19.8657 109.523 main 0 0 __________P___ -1 19.8657 109.523 4 7 286
1909172N19115 1909 29 WP MM NOT_NAMED 1909-06-23 16:00:00 NR 19.9000 109.400 main 10 10 __________O___ -1 19.9000 109.400 4 7 287
1909172N19115 1909 29 WP MM NOT_NAMED 1909-06-23 18:00:00 NR 19.9734 109.147 main 30 30 __________P___ -1 19.9734 109.147 4 8 288
1909172N19115 1909 29 WP MM NOT_NAMED 1909-06-23 21:00:00 NR 20.0936 108.754 main 61 68 __________P___ -1 20.0936 108.754 4 8 288
1909172N19115 1909 29 WP MM NOT_NAMED 1909-06-24 00:00:00 NR 20.2223 108.350 main 98 84 __________P___ -1 20.2223 108.350 4 8 289
1909172N19115 1909 29 WP MM NOT_NAMED 1909-06-24 03:00:00 NR 20.3554 107.938 main 84 78 __________P___ -1 20.3554 107.938 4 8 289
1909172N19115 1909 29 WP MM NOT_NAMED 1909-06-24 04:00:00 NR 20.4000 107.800 main 78 __________O___ -1 20.4000 107.800 4 8 289

デジタル台風データ・検索

IBTrACS Databaseについて

本データベースは、米国NOAAが公開する1842年以降の世界の熱帯低気圧のベストトラックデータアーカイブInternational Best Track Archive for Climate Stewardship (IBTrACS)を、ウェブで閲覧しやすい形式に変換したものです。

最終更新日:2021-12-01